West Palm Beach, FL (33403)

8:55 AM EDT on June 29, 2017 (GMT -0400)
Cap'n Jolly's Sky View | | Change Station

Elev 17 ft 26.82 °N, 80.07 °W | Updated 6 minutes ago

Partly Cloudy
Partly Cloudy
87.1 °F
Feels Like 100 °F
N
1.1
Wind Variable Wind from East

Today
High -- | Low -- °F
--% Chance of Precip.
Yesterday
High -- | Low -- °F
Precip. -- in
Pressure 30.08 in
Visibility 10.0 miles
Clouds Scattered Clouds 1800 ft
Scattered Clouds 14000 ft
Scattered Clouds 25000 ft
Heat Index 100 °F
Dew Point 78 °F
Humidity 74%
Rainfall 0.00 in
Snow Depth Not available.
6:29 AM 8:18 PM
Waxing Crescent, 35% visible
METAR KPBI 291153Z VRB03KT 10SM SCT018 SCT140 SCT250 29/24 A3008 RMK AO2 SLP184 T02890239 10289 20256 53011
Pressure 30.08 in
Visibility 10.0 miles
Clouds Scattered Clouds 1800 ft
Scattered Clouds 14000 ft
Scattered Clouds 25000 ft
Heat Index 100 °F
Dew Point 78 °F
Humidity 74%
Rainfall 0.00 in
Snow Depth Not available.
6:29 AM 8:18 PM
Waxing Crescent, 35% visible
METAR KPBI 291153Z VRB03KT 10SM SCT018 SCT140 SCT250 29/24 A3008 RMK AO2 SLP184 T02890239 10289 20256 53011

Get Severe Weather Alerts

Thanks for signing up!

Be on the lookout for a verification email in your inbox.

You'll start receiving the daily forecast at 6 AM.

×

10-Day Weather Forecast

Almanac

Astronomy

Jun. 29, 2017 Rise Set
Actual Time
Civil Twilight
Nautical Twilight
Astronomical Twilight
Moon
Length of Visible Light
Length of Day
Tomorrow will be .
, % of the Moon is Illuminated

Today's Extremes

State Highs State Lows

Community

WunderPhotos

Category 6

Welcome to Category 6. This is the collective home for Weather Underground's featured writeups by Dr. Jeff Masters (right), Bob Henson (left), Chris Burt, and other regular contributors.

Nearby

Air Quality

  Air Quality AQ Index Pollutant
Not available.

Snow Depth

Station Depth Elevation

Earthquake Activity

City Distance Mag. Time & Date
Minimum magnitude displayed is 2.5.

Coastal Water Temperatures

Place Temperature

Stations

Nearby Weather Stations

Station Location Temp. Windchill Dew Point Humidity Wind Precip. Elev Updated Type
                   

Watches & Warnings

There are currently no watches in effect.